Amboy, Indiana
Current Conditions -  °F | °C
As of 3:35 AM on Saturday 01 Nov 2014 (Local Time) from KOKK Reporting Station
Clear Clear  
Wind Chill: 19°   Ceiling: Unl
Heat Index: 30°   Visibility: 10mi
Dew Point: 21°   Wind: 16mph
Humidity: 69%   Direction: 360°N
Pressure: 30.23"   Gusts: 24mph
Location:  40.6°N, 85.93°W
Report Text: KOKK 010735Z AUTO 36014G21KT 10SM CLR M01/M06 A3023 RMK AO1
Loading
Personal Weather Stations






























Interactive Weather Map
Tropical Storm Tracking
New forecast layout! Learn more

10-Day Weather Forecast

Advertisements
Track Severe Weather on mobile